International TAF

Brunei, China, Hong Kong, Malaysia, Philippines, Taiwan

The availability of aerodrome forecasts from overseas locations is dependent on the regular international exchange of data. Some locations may at times be absent. If this problem persists, please advise webav@bom.gov.au

 back to top

ZSPD 22/04/2019 UTC

TAF ZSPD 220928Z 2212/2312 14004MPS 2000 -RA BR BKN002 TX26/2306Z
TN17/2221Z TEMPO 2212/2216 1000 SHRA BR BKN001 FEW030CB BECMG
2216/2217
BKN001 TEMPO 2221/2301 0600 FG BECMG 2301/2302 3000 -RA BR BKN003

WIDD 22/04/2019 UTC

TAF WIDD 221100Z 2212/2312 00000KT 8000 FEW014
BECMG 2218/2220 7000 HZ
BECMG 2300/2301 12003KT 9000
PROB30 TEMPO 2307/2309 08005KT 6000 -RA BKN014

WAMM 22/04/2019 UTC

TAF WAMM 221100Z 2212/2318 08003KT 9000 SCT021
PROB30 TEMPO 2217/2221 6000 -RA BKN019
BECMG 2223/2301 13008KT SCT021

WBSB 22/04/2019 UTC

TAF WBSB 221100Z 2212/2318 20003KT 9999 FEW015 FEW016CB
TEMPO 2214/2216 7000 SHRA
BECMG 2303/2305 33010KT SCT016 FEW017CB

WBKK 22/04/2019 UTC

TAF WBKK 221100Z 2212/2312 10005KT 9999 FEW014
BECMG 2301/2303 30007KT

WBGG 22/04/2019 UTC

TAF WBGG 221100Z 2212/2312 VRB03KT 9999 SCT020
TEMPO 2220/2300 4000 RA FEW015CB
BECMG 2304/2306 33006KT

VHHH 22/04/2019 UTC

TAF VHHH 221100Z 2212/2318 16010KT 9999 FEW015 TX31/2306Z
TN26/2222Z TEMPO 2215/2224 VRB05KT TEMPO 2300/2309 22010KT TEMPO
2312/2318 VRB05KT

VMMC 22/04/2019 UTC

TAF VMMC 221100Z 2212/2318 16008KT 9999 FEW010 SCT020
TEMPO 2221/2302 4000 BR

ZGSZ 22/04/2019 UTC

TAF ZGSZ 220911Z 2212/2312 17004MPS 6000 SCT040 TX30/2306Z
TN25/2222Z

RCTP 22/04/2019 UTC

TAF RCTP 221100Z 2212/2318 18005KT 9999 FEW012 BKN024 BKN050
TEMPO 2300/2306 24012KT 4000 SHRA FEW010 BKN016 BKN040
TEMPO 2306/2312 25013KT FEW012 BKN032

RCKH 22/04/2019 UTC

TAF RCKH 221100Z 2212/2318 01005KT 9999 FEW015 BKN032
TEMPO 2212/2216 FEW012 BKN020 BKN050
BECMG 2302/2304 28008KT
BECMG 2312/2314 35005KT

ZGGG 22/04/2019 UTC

TAF ZGGG 220914Z 2212/2312 17004MPS 7000 BKN030 TX30/2307Z
TN23/2222Z

ZBAA 22/04/2019 UTC

TAF ZBAA 220920Z 2212/2312 17004MPS 5000 HZ NSC TX26/2307Z
TN07/2221Z

ZSSS 22/04/2019 UTC

TAF ZSSS 220920Z 2212/2312 12004MPS 3000 -RA BR BKN004 TX28/2306Z
TN17/2221Z TEMPO 2212/2216 1500 SHRA BR BKN003 FEW030CB BECMG
2215/2216
1200 -RA BR TEMPO 2220/2301 0600 FG BECMG 2301/2302 3000 -RA BR
BKN010

ZBTJ 22/04/2019 UTC

TAF ZBTJ 220849Z 2212/2312 18004MPS 3000 HZ NSC TX21/2306Z
TN14/2221Z

ZBYN 22/04/2019 UTC

TAF ZBYN 220904Z 2212/2312 09004MPS 5000 HZ NSC TX26/2307Z
TN12/2222Z
TEMPO 2221/2301 2500 HZ

ZSHC 22/04/2019 UTC

TAF ZSHC 220914Z 2212/2312 06003MPS 3000 BR BKN007 BKN020 TX27/2306Z
TN20/2221Z TEMPO 2212/2218 2000 -SHRA BR

ZSOF 22/04/2019 UTC

TAF ZSOF 220904Z 221212 07003MPS 3000 BR BKN008 TX22/07Z TN18/22Z
BECMG 1516 2400 -RA BR BECMG 0001 3000 BR BECMG 0304 BKN010 BECMG
0506 BKN015

ZWWW 22/04/2019 UTC

TAF ZWWW 220903Z 2212/2312 33004MPS 6000 -RA BKN020 TX18/2309Z
TN11/2223Z BECMG 2215/2216 22004MPS CAVOK BECMG 2302/2303 36004MPS

ZYTL 22/04/2019 UTC

TAF ZYTL 220908Z 2212/2312 12004MPS 6000 NSC TX16/2306Z TN10/2221Z
BECMG 2302/2303 3000 -RA BR SCT023 BKN033 BECMG 2306/2307 5000 BR
SCT026

RPLL 22/04/2019 UTC

TAF RPLL 221100Z 2212/2318 11008KT 9999 FEW025 TX35/2306Z
TN28/2222Z TEMPO 2212/2218 13006KT FEW023CB SCT025
TEMPO 2217/2223 12004KT SCT023

RPVM 22/04/2019 UTC

TAF RPVM 221100Z 2212/2318 06008KT 9999 FEW020
TEMPO 2212/2218 07005KT FEW020 SCT300
TEMPO 2218/2224 04004KT

RPMZ 22/04/2019 UTC

TAF RPMZ 221100Z 2212/2312 10006KT 9999 FEW017 SCT070
TEMPO 2212/2218 26003KT 9000 -SHRA FEW016CB SCT017 BKN090

Australian International

The availability of aerodrome forecasts from overseas locations is dependent on the regular international exchange of data. Some locations may at times be absent. If this problem persists, please advise webav@bom.gov.au

 back to top

YMML 22/04/2019 UTC

TAF YMML 221132Z 2212/2318
17008KT 9999 SCT040
FM221400 22007KT 9999 BKN020
FM230000 17011KT 9999 SCT025
BECMG 2315/2317 26005KT 9999 BKN018
RMK
T 12 12 12 12 Q 1028 1027 1026 1027

YSSY 22/04/2019 UTC

TAF YSSY 221107Z 2212/2318
27005KT 9999 FEW025
FM221400 20008KT 9999 -SHRA SCT025
FM230000 15008KT 9999 -SHRA SCT025
FM230800 07008KT 9999 SCT025
FM231600 29008KT 9999 SCT030
RMK
T 22 20 19 19 Q 1025 1025 1025 1026

YBBN 22/04/2019 UTC

TAF YBBN 221104Z 2212/2318
19006KT 9999 -SHRA FEW015 SCT025 SCT040
FM222300 12012KT 9999 SCT030
FM230700 13010KT 9999 SCT025
FM231000 19006KT 9999 -SHRA SCT025
INTER 2314/2318 3000 SHRA BKN012
RMK
T 21 20 20 21 Q 1022 1022 1021 1022

YSCB 22/04/2019 UTC

TAF AMD YSCB 221103Z 2211/2312
12006KT 9999 -SHRA BKN025
BECMG 2212/2214 14005KT 9999 NSW BKN015
BECMG 2221/2223 06008KT 9999 SCT040
FM231000 09005KT 9999 BKN022
TEMPO 2212/2224 9999 BKN010
RMK
T 16 14 13 12 Q 1027 1027 1027 1027

YBCS 22/04/2019 UTC

TAF YBCS 221138Z 2212/2312
15008KT 9999 SCT022 SCT040
FM230100 12014KT 9999 FEW040
FM230800 15008KT 9999 SCT022 SCT040
RMK
T 25 24 23 24 Q 1014 1013 1012 1014

YBAS 22/04/2019 UTC

TAF YBAS 221105Z 2212/2312
16006KT CAVOK
FM230000 13010KT CAVOK
FM231000 13005KT CAVOK
RMK
T 18 14 10 08 Q 1023 1023 1022 1022

YBMA 22/04/2019 UTC

TAF YBMA 221032Z 2212/2224
15008KT CAVOK
RMK
T 25 23 22 20 Q 1017 1017 1016 1017

YPAD 22/04/2019 UTC

TAF YPAD 221113Z 2212/2318
15008KT CAVOK
FM221500 VRB05KT CAVOK
FM230100 23010KT CAVOK
FM230600 14010KT CAVOK
RMK
T 13 12 11 11 Q 1028 1027 1026 1027

YPDN 22/04/2019 UTC

TAF YPDN 221106Z 2212/2318
VRB05KT CAVOK
FM221600 10007KT 9999 FEW020
FM230000 12012KT CAVOK
FM230700 34008KT CAVOK
FM231400 05008KT CAVOK
RMK
T 28 27 26 25 Q 1010 1011 1010 1011

YPTN 22/04/2019 UTC

TAF YPTN 221106Z 2212/2312
13005KT CAVOK
FM230000 12013KT CAVOK
FM231000 12005KT CAVOK
RMK
T 25 25 22 21 Q 1012 1012 1012 1013

YPPH 22/04/2019 UTC

TAF YPPH 221103Z 2212/2318
13005KT CAVOK
FM230000 09010KT CAVOK
FM230500 21010KT CAVOK
RMK
T 17 15 12 12 Q 1023 1023 1023 1023

YPLM 22/04/2019 UTC

TAF YPLM 221142Z 2212/2312
20012KT CAVOK
FM221800 15007KT CAVOK
FM222300 12012KT CAVOK
FM230500 04008KT CAVOK
FM231100 20012KT CAVOK
RMK
T 23 22 21 20 Q 1016 1016 1015 1015

YCAR 22/04/2019 UTC

TAF YCAR 220229Z 2204/2212
05010KT CAVOK
FM220600 19014KT CAVOK
RMK
T 27 27 24 Q 1017 1015 1016

YPCC 22/04/2019 UTC

TAF AMD YPCC 221026Z 2210/2312
09012KT 9999 -SHRA SCT015 BKN020
FM221200 09015KT 6000 SHRA SCT010 BKN015
TEMPO 2210/2312 VRB25G40KT 1000 TSRA BKN005 FEW020CB
RMK
T 27 27 27 27 Q 1006 1009 1010 1008

YPPD 22/04/2019 UTC

TAF YPPD 221142Z 2212/2312
15008KT CAVOK
FM222300 12015KT CAVOK
FM230500 04009KT CAVOK
RMK
T 25 25 24 23 Q 1014 1015 1014 1014

YBTL 22/04/2019 UTC

TAF YBTL 221127Z 2212/2312
13008KT 9999 FEW020 BKN040
FM230200 07014KT 9999 FEW035 BKN060
FM230800 13008KT 9999 FEW020 BKN040
RMK
T 25 23 23 23 Q 1015 1014 1014 1015

YMHB 22/04/2019 UTC

TAF YMHB 221120Z 2212/2312
33008KT CAVOK
FM230400 18006KT 9999 SCT035
FM231000 32008KT 9999 SCT030
RMK
T 10 08 07 07 Q 1027 1026 1025 1026

YPXM 22/04/2019 UTC

TAF AMD YPXM 221026Z 2210/2312
11014KT 9999 -SHRA BKN015
TEMPO 2210/2312 VRB20G30KT 0300 TSRA BKN002 FEW020CB
RMK
T 27 26 25 25 Q 1008 1011 1012 1010

New Zealand

The availability of aerodrome forecasts from overseas locations is dependent on the regular international exchange of data. Some locations may at times be absent. If this problem persists, please advise webav@bom.gov.au

 back to top

NZAA 22/04/2019 UTC

TAF NZAA 221102Z 2212/2312 04005KT 9999 -SHRA FEW020 BKN040
TEMPO 2212/2218 4000 +SHRA BKN012 FEW020CB
PROB30 TEMPO 2212/2218 2500 TSRAGS BKN008 SCT020CB
PROB30 2218/2221 1500 BR
TEMPO 2300/2307 6000 SHRA FEW020TCU
PROB40 TEMPO 2300/2306 2500 TSRAGS BKN012 FEW020CB

NZWN 22/04/2019 UTC

TAF NZWN 221102Z 2212/2312 16012KT 9999 -RA FEW006 BKN050
BECMG 2212/2214 BKN012
TEMPO 2212/2300 6000 RADZ BKN006
BECMG 2222/2300 18015G25KT FEW012 BKN018
BECMG 2304/2306 18010KT BKN006
TEMPO 2306/2312 3000 RADZ BKN003

NZCH 22/04/2019 UTC

TAF AMD NZCH 221140Z 2211/2312 27005KT 9999 FEW020
BECMG 2212/2214 0200 FG
BECMG 2217/2219 9999 NSW BKN008
BECMG 2220/2222 06010KT FEW020
BECMG 2306/2308 VRB02KT

YLHI 22/04/2019 UTC

TAF YLHI 221102Z 2212/2312
10012KT 9999 -SHRA SCT025
RMK
T 21 21 20 21 Q 1025 1025 1024 1025

YSNF 22/04/2019 UTC

TAF YSNF 221103Z 2212/2312
13012KT 9999 -SHRA SCT020 SCT030
RMK
T 19 19 19 20 Q 1022 1022 1021 1023

Indonesia, Malaysia, Myanmar, Singapore, Thailand, Vietnam

The availability of aerodrome forecasts from overseas locations is dependent on the regular international exchange of data. Some locations may at times be absent. If this problem persists, please advise webav@bom.gov.au

 back to top

WADA

TAF not available.

WAAA 22/04/2019 UTC

TAF WAAA 221100Z 2212/2318 11004KT 8000 FEW018
BECMG 2220/2222 9999
BECMG 2302/2304 31010KT

WIII 22/04/2019 UTC

TAF COR WIII 221120Z 2212/2318 VRB03KT 5000 HZ SCT020 TEMPO 2212/2215
SHRA FEW018CB

WIHH 22/04/2019 UTC

TAF WIHH 221100Z 2212/2312 09005KT 7000 SCT020 BECMG 2216/2218 18005KT 5000 HZ FEW022

WIMM 22/04/2019 UTC

TAF WIMM 221100Z 2212/2312 VRB04KT 5000 HZ SCT017
BECMG 2302/2304 33010KT 9999 NSW
TEMPO 2310/2312 07005KT 6000 -RA FEW016CB SCT018

WIPP 22/04/2019 UTC

TAF WIPP 221100Z 2212/2312 10006KT 9999 SCT010
PROB40 TEMPO 2212/2216 1500 TSRA FEW010CB BKN010
TEMPO 2220/2224 3000 BR

WIKD

TAF not available.

WARR 22/04/2019 UTC

TAF WARR 221100Z 2212/2312 09010KT 8000 FEW020
TEMPO 2222/2301 16005KT

WADD 22/04/2019 UTC

TAF WADD 221100Z 2212/2312 11012KT 9999 SCT017

WRRA

TAF not available.

WALL 22/04/2019 UTC

TAF WALL 221030Z 2212/2318 06005KT 9000 SCT020 BECMG 2221/2224 FEW020CB BECMG 2300/2302
9999 FEW018

WSSS 22/04/2019 UTC

TAF WSSS 221100Z 2212/2318 15007KT 9999 FEW015 SCT020
TEMPO 2303/2307 3000 TSRA FEW012CB BKN015

WSAP 22/04/2019 UTC

TAF WSAP 221100Z 2212/2318 15007KT 9999 FEW015 SCT020
TEMPO 2303/2307 3000 TSRA FEW012CB BKN015

WMKK 22/04/2019 UTC

TAF WMKK 221100Z 2212/2318 17005KT 9999 FEW017CB
BECMG 2213/2215 VRB03KT 8000 FEW030
BECMG 2220/2221 4000 HZ FEW017CB
BECMG 2300/2301 15005KT 9999 NSW FEW018
TEMPO 2306/2310 20007KT 3000 TSRA FEW008 FEW017CB SCT018
BECMG 2311/2312 VRB02KT FEW030

WMSA 22/04/2019 UTC

TAF WMSA 221100Z 2212/2312 VRB03KT 9999 FEW017CB
BECMG 2220/2221 4000 HZ FEW020
BECMG 2301/2303 15005KT 9999 NSW
TEMPO 2307/2311 26011G25KT 2000 TSRA FEW009 FEW016CB SCT020

WMKP 22/04/2019 UTC

TAF WMKP 221100Z 2212/2312 VRB03KT 8000 FEW025
BECMG 2222/2300 04005KT 7000 FEW020
BECMG 2304/2306 25010KT 9000

WMKJ 22/04/2019 UTC

TAF WMKJ 221100Z 2212/2312 03005KT 9999 FEW017CB
PROB30 TEMPO 2212/2215 5000 TSRA FEW017CB SCT020
BECMG 2219/2220 4000 BR FEW006 FEW017CB
BECMG 2300/2302 16005KT 9999 NSW FEW018
TEMPO 2306/2310 21007KT 3000 TSRA FEW006 FEW016CB SCT018

WMKD 22/04/2019 UTC

TAF WMKD 221100Z 2212/2312 VRB03KT 9999 FEW020

WMKB 22/04/2019 UTC

TAF WMKB 221100Z 2212/2312 VRB03KT 8000 FEW024
BECMG 2212/2214 7000 FEW017CB
BECMG 2304/2306 30010KT FEW017CB

VTBD 22/04/2019 UTC

TAF VTBD 221100Z 2212/2318 18010KT 9000 FEW025
TEMPO 2212/2216 14010G25KT 5000 TSRA FEW018CB SCT030 BKN100
BECMG 2220/2222 12005KT 7000
BECMG 2300/2302 18010KT 9000
TEMPO 2307/2312 15010G25KT 5000 TSRA FEW018CB SCT030 BKN100

VTBS 22/04/2019 UTC

TAF VTBS 221100Z 2212/2318 19010KT 9000 FEW025
TEMPO 2212/2216 14010G25KT 5000 TSRA FEW018CB SCT030 BKN100
BECMG 2220/2222 13005KT 7000
BECMG 2300/2302 19010KT 9000
TEMPO 2307/2312 15010G25KT 5000 TSRA FEW018CB SCT030 BKN100

VTBU 22/04/2019 UTC

TAF VTBU 221100Z 2212/2312 17008KT 7000 FEW020
BECMG 2301/2303 17010KT 9000

VTCC 22/04/2019 UTC

TAF VTCC 221100Z 2212/2318 16005KT 8000 FEW030
TEMPO 2306/2312 VRB15G25KT 5000 TSRA FEW020CB BKN030

VTSP 22/04/2019 UTC

TAF VTSP 221100Z 2212/2318 08006KT 9999 FEW018
BECMG 2216/2218 00000KT 8000 FEW020
BECMG 2300/2302 08008KT 9999
BECMG 2306/2308 30008KT
BECMG 2314/2316 00000KT 8000

VTSS 22/04/2019 UTC

TAF VTSS 221100Z 2212/2312 06005KT 9999 FEW020

VVTS 22/04/2019 UTC

TAF VVTS 221100Z 2212/2318 14008KT 9999 SCT017

VDPP 22/04/2019 UTC

TAF VDPP 221100Z 2212/2306 15007KT 9999 SCT017
TEMPO 2212/2216 SCT015 FEW017CB

VVNB 22/04/2019 UTC

TAF VVNB 221100Z 2212/2312 11010KT 9999 FEW030 PROB40
TEMPO 2217/2221 4500 RA SCT020 FEW023TCU
TEMPO 2304/2307 4000 TSRA SCT020 FEW030CB

VYYY 22/04/2019 UTC

TAF VYYY 221100Z 2212/2312 24010KT 8000 SCT020 FEW030TCU
TEMPO 2212/2218 22008KT 220V290 7000 NSC
TEMPO 2300/2305 26007KT 200V270 6000 SCT020

South America

The availability of aerodrome forecasts from overseas locations is dependent on the regular international exchange of data. Some locations may at times be absent. If this problem persists, please advise webav@bom.gov.au

 back to top

SAEZ 22/04/2019 UTC

TAF SAEZ 221100Z 2212/2312 19005KT 8000 NSC
TX21/2219Z TN12/2310Z
BECMG 2212/2214 CAVOK
BECMG 2223/2301 09005KT
BECMG 2305/2307 5000 BR SCT015
PROB40 TEMPO 2308/2312 3000 DZ SCT010 BKN030

SAVC 22/04/2019 UTC

TAF SAVC 221100Z 2212/2312 27010KT CAVOK TX22/2218Z TN09/2310Z BECMG
2217/2218 VRB10KT BECMG 2221/2303 22020KT 9999
SCT030 BKN070 BECMG 2306/2309 VRB10KT

SCIE 22/04/2019 UTC

TAF SCIE 221043Z 2212/2312 24004KT 9999 OVC010 TX16/2218Z TN08/2311Z
TEMPO 2212/2214 28004KT 4000 BR FEW008 BKN010 BECMG
2217/2219 23008KT CAVOK BECMG 2301/2303 20004KT TEMPO
2308/2312 4000 BR OVC008

SACO 22/04/2019 UTC

TAF SACO 221100Z 2212/2312 14005KT 7000 DZ SCT012 BKN035
TX19/2219Z
TN10/2310Z
BECMG 2215/2218 14005KT 9999 SCT010 BKN030
BECMG 2218/2221 09005KT 9999 FEW015 BKN040

SCIP 22/04/2019 UTC

TAF SCIP 221010Z 2212/2312 14004KT 9999 FEW020 SCT040
TN17/2212Z TX26/2220Z
TEMPO 2213/2215 VRB02KT 7000 -SHRA SCT020 BKN040
BECMG 2218/2220 11010KT
TEMPO 2220/2300 VRB02KT 7000 -SHRA SCT020 BKN040
BECMG 2301/2303 11004KT
TEMPO 2310/2312 VRB02KT 7000 -SHRA SCT020 BKN040

SAZM 22/04/2019 UTC

TAF SAZM 221100Z 2212/2312 25007KT 9999 BKN030 TX18/2217Z
TN07/2310Z
BECMG 2218/2220 16010KT 9999 FEW030
BECMG 2223/2302 32005KT 7000 BR NSC

SAME 22/04/2019 UTC

TAF SAME 221100Z 2212/2312 16010KT 9999 SCT040 TX24/2220Z
TN09/2310Z
TEMPO 2212/2214 16010KT 6000 DZ OVC030
BECMG 2220/2222 14005KT 9999 FEW040

SUMU 22/04/2019 UTC

TAF SUMU 221130Z 2212/2312 18008KT 9999 SCT023 SCT080 BKN200
TX18/2218Z TN10/2310Z
BECMG 2300/2302 09010KT

SAZN 22/04/2019 UTC

TAF SAZN 221100Z 2212/2312 VRB05KT CAVOK
TX25/2219Z TN11/2311Z

SCTE 22/04/2019 UTC

TAF SCTE 221056Z 2212/2312 19010KT 5000 -DZ OVC005 TX11/2220Z
TN05/2310Z
BECMG 2216/2218 9999 NSW OVC015
BECMG 2220/2222 BKN020
BECMG 2304/2306 OVC015

SCCI 22/04/2019 UTC

TAF SCCI 221050Z 2212/2312 31010KT 9999 SCT060 TX10/2218Z
TN05/2212Z
BECMG 2213/2215 31015G25KT SCT050
TEMPO 2215/2221 9000 -SHRA BKN022
BECMG 2223/2301 26018G28KT
BECMG 2301/2303 28020KT

SAWG 22/04/2019 UTC

TAF SAWG 221100Z 2212/2312 25005KT 9999 FEW030 SCT100 TX11/2218Z
TN03/2311Z
BECMG 2218/2220 27015KT 9999 SCT030 OVC050 PROB40
TEMPO 2218/2222 -RA BKN030 OVC050
BECMG 2301/2307 25020KT CAVOK
BECMG 2309/2312 27015KT

SAAR 22/04/2019 UTC

TAF SAAR 221100Z 2212/2312 VRB03KT 9999 SCT030 BKN040 OVC100
TX19/2218Z TN12/2310Z
TEMPO 2212/2217 7000 -RA
BECMG 2217/2219 10010KT
BECMG 2306/2309 VRB03KT BKN030

SAZS 22/04/2019 UTC

TAF SAZS 221100Z 2212/2312 VRB03KT CAVOK TX18/2220Z TNM02/2310Z
BECMG 2217/2219 29010KT
BECMG 2223/2301 VRB03KT

SCEL 22/04/2019 UTC

TAF SCEL 221043Z 2212/2312 16004KT 6000 NSC TX20/2218Z TN08/2311Z
TEMPO 2212/2215 3000 BR NSC BECMG 2215/2217 18008KT CAVOK
BECMG 2219/2221 20012KT BECMG 2301/2303 14004KT 8000 NSC
TEMPO 2308/2312 VRB02KT 2000 BR FEW004

SAWH 22/04/2019 UTC

TAF SAWH 221100Z 2212/2312 VRB05KT CAVOK TX12/2218Z TN01/2311Z
BECMG 2215/2217 32010KT 9999 SCT030 BKN090
BECMG 2220/2222 23015KT -RA BKN030 OVC050
BECMG 2303/2309 34010KT SCT030 SCT070

Guam, Japan, Korea

The availability of aerodrome forecasts from overseas locations is dependent on the regular international exchange of data. Some locations may at times be absent. If this problem persists, please advise webav@bom.gov.au

 back to top

PGUA 22/04/2019 UTC

TAF PGUA 221000Z 2210/2316 09012KT 9999 SCT015 QNH2982INS
BECMG 2219/2220 09015G20KT 9999 SCT015 QNH2987INS
BECMG 2306/2307 09012KT 9999 SCT015 QNH2985INS TX30/2303Z
TN25/2212Z

PGUM 22/04/2019 UTC

TAF PGUM 221132Z 2212/2318 09008KT P6SM FEW020
FM222300 09015KT P6SM SCT024
FM230900 08008KT P6SM FEW020

PGSN 22/04/2019 UTC

TAF PGSN 221132Z 2212/2312 09013KT P6SM FEW022
FM222300 09013KT P6SM SCT022

PTRO 22/04/2019 UTC

TAF PTRO 221132Z 2212/2312 05012G20KT P6SM SCT016 SCT120
FM221400 05008KT P6SM SCT016

RJOO

22/04/2019 UTC

TAF RJOO 221106Z 2212/2318 32006KT 9999 FEW030 BECMG 2300/2303
22006KT BECMG 2309/2312 32006KT BECMG 2315/2318 07006KT

RJOB 22/04/2019 UTC

TAF RJOB 221108Z 2212/2318 08005KT CAVOK TEMPO 2312/2318 4000 -RA BR
FEW002 SCT005 BKN008

RJGG 22/04/2019 UTC

TAF RJGG 221106Z 2212/2318 32006KT 9999 FEW020 BECMG 2221/2223
14010KT

RJCC 22/04/2019 UTC

TAF RJCC 221106Z 2212/2318 34006KT 9999 FEW030 BECMG 2215/2217
16011KT TEMPO 2312/2318 FEW004 BKN008

RJSS 22/04/2019 UTC

TAF RJSS 221110Z 2212/2318 16010KT 9999 FEW030 BECMG 2213/2215
02004KT BECMG 2300/2303 13010KT BECMG 2309/2312 24004KT

RJFK 22/04/2019 UTC

TAF RJFK 221106Z 2212/2318 14005KT 9999 FEW020 BECMG 2212/2214
03004KT BECMG 2300/2303 11009KT TEMPO 2312/2318 4000 -SHRA
BR FEW003 BKN008 BKN015

RJAA 22/04/2019 UTC

TAF RJAA 221105Z 2212/2318 02008KT 9999 FEW020 BKN045 BECMG
2300/2303 14010KT BECMG 2312/2315 02005KT

RJBB 22/04/2019 UTC

TAF RJBB 221105Z 2212/2318 06008KT 9999 FEW030 BECMG 2300/2303
31006KT BECMG 2303/2306 21016KT BECMG 2309/2312 05006KT

RJTT 22/04/2019 UTC

TAF RJTT 221107Z 2212/2318 07014KT 9999 FEW020 BKN040 BECMG
2212/2214 04014KT BECMG 2300/2303 08006KT BECMG 2306/2309
18010KT BECMG 2312/2315 12004KT

RJFF 22/04/2019 UTC

TAF RJFF 221107Z 2212/2318 14004KT 9999 FEW030 BECMG 2303/2306
36005KT BECMG 2309/2312 14004KT TEMPO 2309/2315 4000 SHRA
BR

RJFT 22/04/2019 UTC

TAF RJFT 221106Z 2212/2318 07005KT 9999 FEW040 BECMG 2222/2300
24004KT BECMG 2309/2312 05005KT TEMPO 2309/2312 3000 SHRA
BR TEMPO 2312/2318 4000 -SHRA BR

RJFU 22/04/2019 UTC

TAF RJFU 221109Z 2212/2318 32008KT 9999 FEW040 BECMG 2212/2214
14008KT TEMPO 2309/2312 3000 SHRA BR FEW005 BKN008 BKN015
TEMPO 2312/2315 4000 -SHRA BR

ROAH 22/04/2019 UTC

TAF ROAH 221105Z 2212/2318 14010KT 9999 SCT010 BKN020 TEMPO
2215/2300 BKN008 BKN015 BECMG 2303/2306 20009KT

RKSS 22/04/2019 UTC

TAF RKSS 221100Z 2212/2318 30006KT 6000 NSC
TN12/2220Z TX25/2306Z
BECMG 2214/2215 14005KT 4200 BR
BECMG 2300/2301 6000 NSW SCT030 BKN150
BECMG 2311/2312 07006KT 4200 -RA FEW010 BKN030 OVC090

RKSI 22/04/2019 UTC

TAF RKSI 221100Z 2212/2318 27007KT 7000 NSC
TN11/2221Z TX22/2306Z
BECMG 2214/2215 13005KT 4200 BR
BECMG 2221/2222 7000 NSW
BECMG 2302/2303 27006KT SCT030 BKN180
BECMG 2310/2311 07006KT 3500 -RA FEW010 BKN025 OVC100
TEMPO 2315/2318 1700

RKSM 22/04/2019 UTC

TAF RKSM 221100Z 2212/2318 09006KT 8000 HZ SCT100 BKN200 BECMG
2303/2304 03006KT 9000 HZ BKN030 BKN120 TN13/2221Z
TX27/2306Z

RKPK 22/04/2019 UTC

TAF RKPK 221100Z 2212/2318 33006KT 9999 FEW030 BKN200
TN13/2221Z TX20/2306Z
BECMG 2221/2222 CAVOK
BECMG 2302/2303 03008KT 9999 BKN030 BKN100
BECMG 2305/2306 15010KT 4800 -RA BR SCT015 OVC030
BECMG 2309/2310 3200 BKN015 OVC030

RKPC 22/04/2019 UTC

TAF RKPC 221100Z 2212/2318 09007KT 6000 NSC
TN16/2222Z TX24/2307Z
BECMG 2217/2218 FEW010 BKN030 OVC100
BECMG 2219/2220 4200 -RA
BECMG 2303/2304 08020G35KT 6000
BECMG 2307/2308 12008KT 4200
BECMG 2314/2315 17006KT 2800

Indonesia, Pakistan, Singapore, India, Sri Lanka, United Arab Emirates

The availability of aerodrome forecasts from overseas locations is dependent on the regular international exchange of data. Some locations may at times be absent. If this problem persists, please advise webav@bom.gov.au

 back to top

WIII 22/04/2019 UTC

TAF COR WIII 221120Z 2212/2318 VRB03KT 5000 HZ SCT020 TEMPO 2212/2215
SHRA FEW018CB

WSSS 22/04/2019 UTC

TAF WSSS 221100Z 2212/2318 15007KT 9999 FEW015 SCT020
TEMPO 2303/2307 3000 TSRA FEW012CB BKN015

VCBI 22/04/2019 UTC

TAF VCBI 221100Z 2212/2318 12005KT 9999 FEW018 TX33/2306Z
TN26/2300Z PROB30
TEMPO 2212/2218 6000 -TSRA/SHRA SCT016 FEW020CB
BECMG 2304/2306 27010KT

VECC 22/04/2019 UTC

TAF VECC 221100Z 2212/2318 16005KT 3500 HZ FEW020 SCT100
TEMPO 2213/2217 33015G25KT 2000 TSRA SCT015 FEW025CB OVC090
BECMG2223/2301 2000 BR
BECMG 2304/2306 3500 HZ
TEMPO 2311/2315 33015G25KT 1500 TSRA SCT015 FEW025CB OVC909

VOMM 22/04/2019 UTC

TAF VOMM 221100Z 2212/2318 14010KT 6000 FEW020 SCT100
TEMPO 2212/2218 SCT018 FEW025CB BKN100
BECMG 2300/2301 23005KT
BECMG 2305/2306 14010KT
BECMG 2309/2310 14010G20KT
BECMG 2312/2313 14010KT

VOTV 22/04/2019 UTC

TAF VOTV 221100Z 2212/2318 31010G20KT 6000 FEW015 FEW025CB TEMPO
2214/2216 32010KT 3000 TSRA RA SCT015 FEW025CB BKN080 BECMG
2218/2220 36005KT 2000 BR SCT015 BKN080 BECMG 2304/2305 30010KT 6000
FEW015 SCT020 TEMPO 2310/2314 30010G20KT 3000 TSRA RA SCT015
FEW025CB BKN080

VABB 22/04/2019 UTC

TAF VABB 221100Z 2212/2318 27010KT 5000 FU FEW020
BECMG 2214/2216 26006KT 4000 FU
BECMG 2222/2224 04004KT 3000 FU NSC
BECMG 2306/2308 24004KT 4000 FU FEW020
BECMG 2310/2312 28010KT 5000 FU FEW020

VAAH 22/04/2019 UTC

TAF VAAH 221100Z 2212/2318 28006KT 4000 FU NSC
BECMG 2301/2304 32006KT 2500 FU
BECMG 2304/2306 26006KT 6000
BECMG 2313/2315 29007KT 4000 FU

VILK 22/04/2019 UTC

TAF VILK 221100Z 2212/2318 32004KT 5000 HZ SCT020 SCT100
BECMG 2216/2218 VRB02KT 3000 HZ
BECMG 2306/2308 32008KT 5000 HZ FEW020 SCT100
BECMG 2316/2318 VRB02KT 3000 HZ

VANP 22/04/2019 UTC

TAF VANP 221100Z 2212/2318 34005KT 3000 HZ FEW020 SCT100
TEMPO 2214/2218 FEW030CB
BECMG 2306/2308 25008KT 5000 HZ FEW020 SCT025
BECMG 2312/2314 34005KT 3000 HZ FEW020 SCT100
TEMPO 2310/2314 FEW030CB

VRMM 22/04/2019 UTC

TAF VRMM 221100Z 2212/2318 30010KT 9999 FEW018 TEMPO 2212/2218
5000 -SHRA FEW017CB

VOHS 22/04/2019 UTC

TAF VOHS 221100Z 2212/2318 06008KT 5000 HZ FEW015 SCT025 TEMPO
2212/2221 FEW030CB BKN100 BECMG 2216/2218 150007KT 6000 FEW015
SCT100 BECMG 2300/2302 18005KT 5000 HZ BECMG 2305/2307 06008KT 6000
SCT015 SCT025 TEMPO 2309/2318 FEW030CB BKN100 BECMG 2313/2315
15007KT

OPKC 22/04/2019 UTC

TAF OPKC 221230Z 2215/2224 26005G15KT 6000 NSC

OBBI 22/04/2019 UTC

TAF OBBI 221100Z 2212/2318 34020G30KT 7000 NSC PROB30 TEMPO
2212/2216 3000 DU

OMAA 22/04/2019 UTC

TAF OMAA 221100Z 2212/2318 21011KT 8000 NSC
BECMG 2212/2214 28012KT
BECMG 2306/2308 34017KT

OMDB 22/04/2019 UTC

TAF OMDB 221056Z 2212/2318 30013KT 8000 NSC
BECMG 2215/2217 07005KT
BECMG 2222/2300 30012KT

OOMS 22/04/2019 UTC

TAF OOMS 221100Z 2212/2318 07010KT 8000 NSC BECMG 2218/2220 20006KT
TEMPO 2221/2224 21016KT BECMG 2307/2309 03012KT

OMSJ 22/04/2019 UTC

TAF OMSJ 221056Z 2212/2318 30013KT 8000 NSC
BECMG 2215/2217 08005KT
BECMG 2223/2301 29012KT

Malawi, Mauritius, South Africa, Zambia, Zimbabwe

The availability of aerodrome forecasts from overseas locations is dependent on the regular international exchange of data. Some locations may at times be absent. If this problem persists, please advise webav@bom.gov.au

 back to top

FIMP 22/04/2019 UTC

TAF FIMP 221125Z 2212/2318 07010KT 9999 SCT016 TEMPO 2215/2218
7000 -SHRA FEW010 BKN015

FMEE 22/04/2019 UTC

TAF FMEE 221100Z 2212/2318 08008KT 9999 SCT025 BKN050 TEMPO 2212/2303
2000 SHRA SCT018CB PROB30 TEMPO 2212/2304 1100 TSRA SCT010CB

FLKK

TAF not available.

FWKI 22/04/2019 UTC

TAF FWKI 221000Z 2212/2318 16008KT 9999 SCT025 FM221600 16005KT CAVOK
BECMG 2301/2305 VRB02KT 6000 BCFG FEW006 BECMG 2306/2308 16005KT
9999 SCT015 BECMG 2310/2312 SCT022 FM231600 10005KT CAVOK

FAOR 22/04/2019 UTC

TAF AMD FAOR 221155Z 2212/2318 02013KT 9999 BKN020
TX17/2212Z TN12/2304Z
PROB30 TEMPO 2212/2224 0800 TSRA BKN005 FEW035CB
BECMG 2218/2220 14010KT
PROB30 TEMPO 2300/2304 -SHRA FEW030TCU
BECMG 2302/2304 03012KT BKN014
PROB30 TEMPO 2304/2306 4000 BR BKN006
FM230900 01012KT 9999 SCT030
PROB30 TEMPO 2314/2318 -TSRA FEW030CB

FVHA

TAF not available.

FAWK 22/04/2019 UTC

TAF FAWK 220900Z 2210/2218 NIL

FABL 22/04/2019 UTC

TAF FABL 221000Z 2212/2312 12005KT 9999 SCT010 BKN035 TX15/2213Z
TN10/2304Z
TEMPO 2213/2223 4000 TSRA BKN010 SCT025CB
BECMG 2217/2219 06015KT
PROB30 TEMPO 2223/2306 5000 TSRA SCT025CB
TEMPO 2306/2312 5000 SHRA BKN010

FALE 22/04/2019 UTC

TAF FALE 221000Z 2212/2318 13014KT 9999 SCT018
TX23/2212Z TN18/2304Z
TEMPO 2215/2220 5000 RA BKN008 OVC025
TEMPO 2304/2310 3000 SHRA BKN010 FEW025TCU
BECMG 2311/2313 08012G22KT

YPCC 22/04/2019 UTC

TAF AMD YPCC 221026Z 2210/2312
09012KT 9999 -SHRA SCT015 BKN020
FM221200 09015KT 6000 SHRA SCT010 BKN015
TEMPO 2210/2312 VRB25G40KT 1000 TSRA BKN005 FEW020CB
RMK
T 27 27 27 27 Q 1006 1009 1010 1008

United States (includes Hawaii) and Mexican emergency/alternates

The availability of aerodrome forecasts from overseas locations is dependent on the regular international exchange of data. Some locations may at times be absent. If this problem persists, please advise webav@bom.gov.au

 back to top

PHNL 22/04/2019 UTC

TAF PHNL 221211Z 2212/2318 06011KT P6SM FEW025 SCT045
FM222000 06014G22KT P6SM FEW025 SCT045
FM230500 06011KT P6SM SCT025 SCT045

PHLI 22/04/2019 UTC

TAF PHLI 221211Z 2212/2312 05015KT P6SM SCT025
TEMPO 2212/2214 BKN020

PHOG 22/04/2019 UTC

TAF PHOG 221211Z 2212/2312 06011KT P6SM FEW025 SCT050
FM222000 06015G25KT P6SM FEW025 SCT050
FM230500 06011G17KT P6SM SCT025 SCT050
AMD LTD TO VIS AND WIND TIL 221600

PHTO 22/04/2019 UTC

TAF PHTO 221211Z 2212/2312 24005KT P6SM VCSH SCT025 BKN050
FM222000 09010G17KT P6SM FEW025 SCT050
FM230500 24008KT P6SM SCT025 BKN050

PKMJ 22/04/2019 UTC

TAF PKMJ 221132Z 2212/2312 06020KT P6SM VCSH SCT015 SCT050 BKN120

KLAX 22/04/2019 UTC

TAF KLAX 221125Z 2212/2318 VRB03KT P6SM FEW012
FM221300 VRB03KT P6SM BKN011
FM221700 26008KT P6SM FEW015
FM222100 27014KT P6SM SKC
FM230300 27008KT P6SM SKC
FM230600 VRB03KT P6SM SKC
FM231700 27007KT P6SM SKC

KONT 22/04/2019 UTC

TAF KONT 221135Z 2212/2318 VRB05KT P6SM SKC
FM222000 27012G22KT P6SM SKC
FM230300 25007KT P6SM SKC

KPMD 22/04/2019 UTC

TAF KPMD 221125Z 2212/2312 21007KT P6SM SKC
FM221400 VRB03KT P6SM SKC
FM221800 03010KT P6SM SKC
FM230000 33015G25KT P6SM SKC
FM230700 26007KT P6SM SKC

KSAN 22/04/2019 UTC

TAF KSAN 221135Z 2212/2318 19007KT P6SM SCT030
TEMPO 2212/2216 BKN025
FM221900 28010KT P6SM SCT030
FM230200 28005KT P6SM SCT025
FM230800 VRB03KT P6SM BKN025

KLAS 22/04/2019 UTC

TAF KLAS 221152Z 2212/2318 34011G20KT P6SM SKC
FM222000 03010KT P6SM FEW070 SCT100
FM230400 34010KT P6SM FEW100

KOAK 22/04/2019 UTC

TAF KOAK 221120Z 2212/2318 02004KT P6SM FEW007
FM221700 30008KT P6SM SKC
FM222100 28015KT P6SM SKC
FM230300 28006KT P6SM SKC
FM231000 28005KT P6SM SCT010
FM231600 04004KT P6SM SKC

KSFO 22/04/2019 UTC

TAF KSFO 221120Z 2212/2318 27005KT P6SM FEW008
FM221800 29012KT P6SM SKC
FM222200 29015G20KT P6SM SKC
FM230300 29006KT P6SM FEW008

KSMF 22/04/2019 UTC

TAF KSMF 221127Z 2212/2312 32007KT P6SM FEW250
FM221900 34020G27KT P6SM SKC
FM230300 33007KT P6SM FEW250

KSCK 22/04/2019 UTC

TAF KSCK 221127Z 2212/2312 33009KT P6SM FEW250
FM222000 32013G21KT P6SM SKC
FM230300 31010KT P6SM FEW250

KFAT 22/04/2019 UTC

TAF KFAT 221120Z 2212/2312 VRB05KT P6SM SKC

KJFK 22/04/2019 UTC

TAF KJFK 221123Z 2212/2318 36005KT P6SM FEW030 SCT120
FM221400 35010KT P6SM SCT025 BKN090
TEMPO 2214/2216 BKN030
FM221800 34010KT P6SM VCSH FEW015 BKN040
FM230000 33007KT P6SM SCT015 BKN040 PROB30 2300/2306 -SHRA
FM230600 32007KT P6SM SCT015 SCT030 BKN080
FM231500 24007KT P6SM FEW015 SCT035

KPHL 22/04/2019 UTC

TAF KPHL 221121Z 2212/2318 02009KT P6SM BKN060
FM221400 02009KT P6SM BKN035
TEMPO 2214/2216 BKN025
FM221800 35012KT P6SM OVC050
FM222300 32006KT P6SM SCT100
FM230100 31005KT P6SM SKC

KPIT 22/04/2019 UTC

TAF KPIT 221124Z 2212/2318 26003KT P6SM OVC025
FM221400 29004KT P6SM FEW150
FM231400 20010KT P6SM BKN150

KDEN 22/04/2019 UTC

TAF KDEN 221132Z 2212/2318 03009KT P6SM SCT006 OVC009
TEMPO 2212/2215 3SM -DZ BR OVC006
FM221500 03008KT P6SM SCT008 OVC015
FM221800 03007KT P6SM SCT015 BKN025
FM222100 04007KT P6SM BKN040
FM230300 VRB05KT P6SM BKN030
FM231100 14005KT P6SM SCT060
FM231400 17007KT P6SM BKN070

KMCI 22/04/2019 UTC

TAF KMCI 221120Z 2212/2312 18011KT P6SM BKN040
FM221700 25010KT P6SM SCT050
FM222300 30010KT P6SM SCT040 SCT120
FM230400 34010KT P6SM BKN035

KDFW 22/04/2019 UTC

TAF KDFW 221123Z 2212/2318 17018KT P6SM SCT017 BKN024
FM221600 17016KT P6SM SCT025 BKN035 BKN150
FM230100 17011KT P6SM BKN050 BKN150
FM230700 17011KT P6SM BKN018
FM231600 17008KT P6SM BKN025

KAUS 22/04/2019 UTC

TAF KAUS 221128Z 2212/2318 16008KT P6SM FEW013 BKN020
FM221500 17012G22KT P6SM BKN023
FM221900 15013G23KT P6SM BKN035
FM230400 15012KT P6SM BKN015
FM231000 16010KT 3SM BR OVC008

KELP 22/04/2019 UTC

TAF KELP 221135Z 2212/2312 29007KT P6SM FEW180 OVC250
FM222100 24012G20KT P6SM SCT090 BKN150
FM230200 02009KT P6SM FEW090 BKN250

KIAH 22/04/2019 UTC

TAF KIAH 221136Z 2212/2318 14005KT P6SM SCT025 BKN250
TEMPO 2212/2214 BKN025
FM221400 14011KT P6SM SCT025 SCT050
FM221800 14013G21KT P6SM BKN050
FM230200 14008KT P6SM BKN030
FM230800 15007KT P6SM BKN025
FM231500 14014KT P6SM SCT025

KSAT 22/04/2019 UTC

TAF KSAT 221128Z 2212/2318 15012KT P6SM BKN012 BKN020
FM221500 15012G22KT P6SM BKN023
FM221900 14012G22KT P6SM BKN035
FM230400 13012KT P6SM BKN015
FM231000 15011KT 5SM BR OVC008

KTUS 22/04/2019 UTC

TAF KTUS 221133Z 2212/2312 13005KT P6SM FEW250
FM221900 24010KT P6SM SCT120
FM230600 17006KT P6SM FEW120

MMCU 22/04/2019 UTC

TAF MMCU 220445Z 2206/2306 19007KT P6SM BKN080
FM221800 34010KT P6SM BKN090 BKN200
BECMG 2303/2305 33012KT

MMHO 22/04/2019 UTC

TAF MMHO 220418Z 2206/2306 28004KT P6SM OVC120
FM221800 23012KT P6SM BKN120 BKN220
BECMG 2303/2305 29005KT

MMLT 22/04/2019 UTC

TAF MMLT 220350Z 2206/2306 15005KT P6SM SCT250
FM221800 36010KT P6SM SCT140 BKN250
FM230500 15005KT P6SM SCT250

MMSD 22/04/2019 UTC

TAF MMSD 220350Z 2206/2306 22005KT P6SM SCT250
FM221800 14012KT P6SM BKN250
FM230500 22005KT P6SM SCT250

Papua New Guinea, Southwest Pacific

The availability of aerodrome forecasts from overseas locations is dependent on the regular international exchange of data. Some locations may at times be absent. If this problem persists, please advise webav@bom.gov.au

 back to top

NWWW 22/04/2019 UTC

TAF NWWW 221100Z 2212/2312 VRB02KT 9999 FEW050 BECMG 2222/2224 14012KT PROB40 TEMPO 2302/2306 SCT020TCU BECMG 2306/2308 VRB02KT

NFFN 22/04/2019 UTC

TAF NFFN 221105Z 2212/2312
09008KT 9999 -SHRA SCT025 SCT045 BKN100
TEMPO 2212/2312 3000 TSRA BKN015 FEW017CB

NFNA 22/04/2019 UTC

TAF NFNA 221105Z 2212/2312
10008KT 9999 -SHRA SCT018 BKN040 BKN100
TEMPO 2212/2312 3000 TSRA BKN015 FEW017CB

NFTF 22/04/2019 UTC

TAF NFTF 221105Z 2212/2312
11015G25KT 9999 -SHRA FEW010 SCT017
PROB30 TEMPO 2218/2312 5000 TSRA BKN015 FEW018CB

NSTU 22/04/2019 UTC

TAF NSTU 221211Z 2212/2312 VRB05KT P6SM VCSH SCT015 BKN100

NVVV 22/04/2019 UTC

TAF NVVV 221000Z 2212/2312 VRB02KT 9999 SCT020 BKN040
INTER 2212/2218 9000 SHRA BKN018

NCRG 22/04/2019 UTC

TAF NCRG 221105Z 2212/2312
11007KT 9999 FEW020
PROB30 TEMPO 2217/2306 12012G25KT

NTAA 22/04/2019 UTC

TAF NTAA 221100Z 2212/2318 VRB02KT 9999 FEW020 SCT050 BECMG 2219/2221
05012KT PROB30 TEMPO 2222/2303 4500 SHRA FEW016 BKN045 BECMG
2303/2305 VRB02KT PROB30 TEMPO 2316/2318 05013KT 4500 SHRA SCT018
BKN045

NTTG

TAF not available.

NTTO

TAF not available.

NSFA 22/04/2019 UTC

TAF NSFA 221105Z 2212/2312
08007KT 9999 -SHRA SCT018 SCT040 BKN100
PROB40 TEMPO 2215/2220 3000 TSRA BKN015 FEW018CB
TEMPO 2300/2308 3000 TSRA BKN015 FEW017CB

ANYN

TAF not available.

AGGH 22/04/2019 UTC

TAF AGGH 221110Z 2212/2312 18005KT 9999 FEW016 SCT030

T 26 24 23 26 Q 1010 1008 1007 1009

AGGM 22/04/2019 UTC

TAF AGGM 221110Z 2212/2312 09006KT 9999 FEW016 SCT030

Q 1010 1008 1007 1009

AGGN 22/04/2019 UTC

TAF AGGN 221110Z 2212/2312 09006KT 9999 FEW016 SCT030

Q 1010 1008 1007 1009

AYPY 22/04/2019 UTC

TAF AYPY 221000Z 2212/2312 17007KT 9999 BKN035
FM221800 00000KT 9999 SCT035
T/26 26 25 25 Q/1009 1008 1006 1007

AYNZ

TAF not available.

AYMD

TAF not available.

AYMH

TAF not available.

AYTA

TAF not available.

PKMJ 22/04/2019 UTC

TAF PKMJ 221132Z 2212/2312 06020KT P6SM VCSH SCT015 SCT050 BKN120

NGTA 22/04/2019 UTC

TAF NGTA 221106Z 2212/2312
08015KT 9999 -SHRA SCT017 BKN040 OVC100
TEMPO 2212/2218 08015G25KT 1500 +TSRA BKN012 SCT015CB
TEMPO 2218/2224 3000 TSRA BKN015 FEW017CB
PROB40 TEMPO 2300/2312 5000 TSRA FEW017CB

PTRO 22/04/2019 UTC

TAF PTRO 221132Z 2212/2312 05012G20KT P6SM SCT016 SCT120
FM221400 05008KT P6SM SCT016

YLHI 22/04/2019 UTC

TAF YLHI 221102Z 2212/2312
10012KT 9999 -SHRA SCT025
RMK
T 21 21 20 21 Q 1025 1025 1024 1025

YSNF 22/04/2019 UTC

TAF YSNF 221103Z 2212/2312
13012KT 9999 -SHRA SCT020 SCT030
RMK
T 19 19 19 20 Q 1022 1022 1021 1023

Indonesia, Timor Leste, Papua New Guinea

The availability of aerodrome forecasts from overseas locations is dependent on the regular international exchange of data. Some locations may at times be absent. If this problem persists, please advise webav@bom.gov.au

 back to top

WAAA 22/04/2019 UTC

TAF WAAA 221100Z 2212/2318 11004KT 8000 FEW018
BECMG 2220/2222 9999
BECMG 2302/2304 31010KT

WAMM 22/04/2019 UTC

TAF WAMM 221100Z 2212/2318 08003KT 9000 SCT021
PROB30 TEMPO 2217/2221 6000 -RA BKN019
BECMG 2223/2301 13008KT SCT021

WAMP

TAF not available.

WAJJ 22/04/2019 UTC

TAF WAJJ 221100Z 2212/2312 29005KT 9999 SCT013
BECMG 2216/2218 00000KT
BECMG 2222/2224 28005KT
TEMPO 2307/2310 VCSH FEW012CB

WAPP 22/04/2019 UTC

TAF WAPP 221100Z 2212/2312 35007KT 9999 SCT018

WABB 22/04/2019 UTC

TAF WABB 221100Z 2212/2318 00000KT 9000 SCT018
BECMG 2222/2300 09005KT

WPDL 22/04/2019 UTC

TAF WPDL 220640Z 2208/2220
05010KT 9999 FEW030
FM221100 15006KT 9999 FEW025
RMK
T 31 30 27 26 Q 1006 1008 1009 1008

WATT 22/04/2019 UTC

TAF WATT 220500Z 2206/2306 12015KT 9999 FEW018
BECMG 2214/2216 12004KT
BECMG 2223/2301 10014KT

WIII 22/04/2019 UTC

TAF COR WIII 221120Z 2212/2318 VRB03KT 5000 HZ SCT020 TEMPO 2212/2215
SHRA FEW018CB

WIHH 22/04/2019 UTC

TAF WIHH 221100Z 2212/2312 09005KT 7000 SCT020 BECMG 2216/2218 18005KT 5000 HZ FEW022

WIMM 22/04/2019 UTC

TAF WIMM 221100Z 2212/2312 VRB04KT 5000 HZ SCT017
BECMG 2302/2304 33010KT 9999 NSW
TEMPO 2310/2312 07005KT 6000 -RA FEW016CB SCT018

WARR 22/04/2019 UTC

TAF WARR 221100Z 2212/2312 09010KT 8000 FEW020
TEMPO 2222/2301 16005KT

WADD 22/04/2019 UTC

TAF WADD 221100Z 2212/2312 11012KT 9999 SCT017

AYPY 22/04/2019 UTC

TAF AYPY 221000Z 2212/2312 17007KT 9999 BKN035
FM221800 00000KT 9999 SCT035
T/26 26 25 25 Q/1009 1008 1006 1007

AYNZ

TAF not available.

AYMH

TAF not available.

AYMD

TAF not available.

AYHK

TAF not available.

AYTK

TAF not available.

AYVN

TAF not available.

AYWK

TAF not available.

AYGA

TAF not available.

AYDU

TAF not available.

AYMS

TAF not available.

AYRB

TAF not available.

AYTB

TAF not available.

AYKI

TAF not available.

AYKT

TAF not available.

AYBK

TAF not available.

AYKM

TAF not available.

AYKY

TAF not available.

AYMO

TAF not available.

AYKV

TAF not available.

Accessing this Service

By entering this site, you acknowledge that this information is produced solely for use by the aviation industry, and you are aware that any information for the purposes of flight planning should be obtained from Airservices Australia.